createdAt,value
2022-08-25T00:01:31.731Z,97418.44
2022-08-25T00:03:59.341Z,97414.81
2022-08-25T00:06:26.134Z,97414.00
2022-08-25T00:08:52.620Z,97421.56
2022-08-25T00:11:21.076Z,97407.84
2022-08-25T00:13:48.675Z,97416.91
2022-08-25T00:16:16.097Z,97414.34
2022-08-25T00:18:45.623Z,97412.72
2022-08-25T00:21:12.650Z,97413.91
2022-08-25T00:23:40.031Z,97411.19
2022-08-25T00:26:06.668Z,97415.84
2022-08-25T00:28:33.919Z,97414.53
2022-08-25T00:31:01.333Z,97413.59
2022-08-25T00:33:28.454Z,97410.94
2022-08-25T00:35:56.396Z,97418.25
2022-08-25T00:38:23.143Z,97418.47
2022-08-25T00:41:05.789Z,97414.19
2022-08-25T00:43:38.206Z,97420.09
2022-08-25T00:46:04.854Z,97419.75
2022-08-25T00:48:31.341Z,97417.84
2022-08-25T00:50:57.747Z,97419.81
2022-08-25T00:53:24.310Z,97413.44
2022-08-25T00:55:50.718Z,97403.50
2022-08-25T00:58:19.237Z,97408.72
2022-08-25T01:00:47.342Z,97413.59
2022-08-25T01:03:14.340Z,97416.50
2022-08-25T01:05:41.145Z,97405.72
2022-08-25T01:08:07.636Z,97411.53
2022-08-25T01:10:35.256Z,97408.28
2022-08-25T01:13:03.720Z,97403.38
2022-08-25T01:15:30.357Z,97399.31
2022-08-25T01:17:57.454Z,97404.25
2022-08-25T01:20:29.603Z,97404.72
2022-08-25T01:22:56.620Z,97405.63
2022-08-25T01:25:55.527Z,97413.03
2022-08-25T01:28:22.262Z,97404.72
2022-08-25T01:30:49.397Z,97414.13
2022-08-25T01:33:17.310Z,97414.75
2022-08-25T01:35:43.921Z,97413.53
2022-08-25T01:38:10.412Z,97415.41
2022-08-25T01:40:37.472Z,97410.97
2022-08-25T01:43:07.119Z,97412.75
2022-08-25T01:45:34.748Z,97413.66
2022-08-25T01:48:01.327Z,97415.06
2022-08-25T01:50:27.927Z,97405.19
2022-08-25T01:52:55.879Z,97402.66
2022-08-25T01:55:22.642Z,97399.28
2022-08-25T01:57:49.142Z,97400.22
2022-08-25T02:00:16.164Z,97401.66
2022-08-25T02:02:42.911Z,97399.13
2022-08-25T02:05:11.319Z,97400.09
2022-08-25T02:07:38.233Z,97402.75
2022-08-25T02:10:06.237Z,97408.00
2022-08-25T02:12:32.740Z,97405.56
2022-08-25T02:14:59.822Z,97405.78
2022-08-25T02:17:26.234Z,97402.03
2022-08-25T02:19:52.687Z,97395.88
2022-08-25T02:22:19.100Z,97396.31
2022-08-25T02:24:45.549Z,97394.59
2022-08-25T02:27:12.086Z,97399.63
2022-08-25T02:29:38.559Z,97392.56
2022-08-25T02:32:05.024Z,97392.72
2022-08-25T02:34:31.458Z,97394.78
2022-08-25T02:36:57.873Z,97392.38
2022-08-25T02:39:24.346Z,97389.50
2022-08-25T02:41:51.500Z,97392.84
2022-08-25T02:44:17.939Z,97401.28
2022-08-25T02:46:44.355Z,97391.06
2022-08-25T02:49:10.798Z,97399.06
2022-08-25T02:51:37.205Z,97391.06
2022-08-25T02:54:04.395Z,97394.00
2022-08-25T02:56:31.071Z,97393.84
2022-08-25T02:58:57.605Z,97393.47
2022-08-25T03:01:28.655Z,97391.25
2022-08-25T03:03:55.829Z,97389.84
2022-08-25T03:06:25.445Z,97379.59
2022-08-25T03:08:52.243Z,97388.19
2022-08-25T03:11:18.736Z,97381.41
2022-08-25T03:13:45.161Z,97387.44
2022-08-25T03:16:12.453Z,97384.22
2022-08-25T03:18:40.233Z,97380.53
2022-08-25T03:21:07.092Z,97385.69
2022-08-25T03:23:33.500Z,97380.16
2022-08-25T03:26:18.554Z,97376.47
2022-08-25T03:28:45.038Z,97373.78
2022-08-25T03:31:11.518Z,97369.50
2022-08-25T03:33:38.418Z,97371.72
2022-08-25T03:36:05.601Z,97363.28
2022-08-25T03:38:32.220Z,97363.06
2022-08-25T03:40:58.672Z,97351.75
2022-08-25T03:43:25.083Z,97353.59
2022-08-25T03:45:51.563Z,97350.13
2022-08-25T03:48:18.269Z,97354.41
2022-08-25T03:50:50.782Z,97355.59
2022-08-25T03:53:18.914Z,97352.94
2022-08-25T03:55:45.413Z,97359.50
2022-08-25T03:58:12.391Z,97354.16
2022-08-25T04:00:38.895Z,97362.16
2022-08-25T04:03:05.342Z,97367.31
2022-08-25T04:05:31.883Z,97353.94
2022-08-25T04:08:01.909Z,97359.38
2022-08-25T04:10:28.605Z,97356.34
2022-08-25T04:12:55.993Z,97357.75
2022-08-25T04:15:22.491Z,97358.78
2022-08-25T04:17:50.527Z,97355.78
2022-08-25T04:20:18.934Z,97359.25
2022-08-25T04:22:45.434Z,97352.75
2022-08-25T04:25:11.868Z,97346.38
2022-08-25T04:27:38.314Z,97344.91
2022-08-25T04:30:05.542Z,97340.41
2022-08-25T04:32:32.211Z,97343.50
2022-08-25T04:34:59.002Z,97334.91
2022-08-25T04:37:25.473Z,97340.69
2022-08-25T04:39:51.999Z,97332.09
2022-08-25T04:42:18.433Z,97330.47
2022-08-25T04:44:44.865Z,97331.91
2022-08-25T04:47:12.240Z,97326.38
2022-08-25T04:49:38.685Z,97326.78
2022-08-25T04:52:05.116Z,97326.34
2022-08-25T04:54:39.460Z,97326.72
2022-08-25T04:57:06.248Z,97319.53
2022-08-25T04:59:32.734Z,97324.88
2022-08-25T05:02:02.526Z,97324.88
2022-08-25T05:04:29.358Z,97330.19
2022-08-25T05:06:56.353Z,97325.47
2022-08-25T05:09:22.836Z,97329.50
2022-08-25T05:11:49.267Z,97334.16
2022-08-25T05:14:18.219Z,97333.56
2022-08-25T05:16:46.120Z,97330.53
2022-08-25T05:19:12.660Z,97328.06
2022-08-25T05:21:39.201Z,97331.59
2022-08-25T05:24:05.857Z,97333.59
2022-08-25T05:26:33.221Z,97334.03
2022-08-25T05:29:00.775Z,97328.28
2022-08-25T05:31:28.013Z,97331.13
2022-08-25T05:33:54.724Z,97329.22
2022-08-25T05:36:21.992Z,97323.66
2022-08-25T05:38:48.621Z,97314.19
2022-08-25T05:41:16.951Z,97310.72
2022-08-25T05:43:44.250Z,97312.94
2022-08-25T05:46:10.895Z,97314.75
2022-08-25T05:48:37.502Z,97315.28
2022-08-25T05:51:04.890Z,97318.84
2022-08-25T05:53:31.430Z,97322.22
2022-08-25T05:56:00.744Z,97320.81
2022-08-25T05:58:30.709Z,97317.13
2022-08-25T06:00:58.100Z,97314.34
2022-08-25T06:03:24.579Z,97309.91
2022-08-25T06:05:51.029Z,97314.06
2022-08-25T06:08:17.529Z,97302.19
2022-08-25T06:10:44.015Z,97305.34
2022-08-25T06:13:10.471Z,97310.06
2022-08-25T06:15:38.653Z,97305.06
2022-08-25T06:18:05.240Z,97298.81
2022-08-25T06:20:32.218Z,97299.53
2022-08-25T06:22:58.827Z,97296.63
2022-08-25T06:25:25.753Z,97306.34
2022-08-25T06:27:52.206Z,97305.25
2022-08-25T06:30:24.325Z,97299.97
2022-08-25T06:32:54.982Z,97303.94
2022-08-25T06:35:21.440Z,97296.16
2022-08-25T06:37:47.945Z,97297.31
2022-08-25T06:40:15.049Z,97299.19
2022-08-25T06:42:41.684Z,97296.41
2022-08-25T06:45:08.484Z,97302.16
2022-08-25T06:47:34.944Z,97304.66
2022-08-25T06:50:04.014Z,97305.81
2022-08-25T06:52:30.768Z,97304.78
2022-08-25T06:54:57.317Z,97308.94
2022-08-25T06:57:24.331Z,97307.66
2022-08-25T06:59:53.491Z,97303.38
2022-08-25T07:02:21.952Z,97305.06
2022-08-25T07:04:48.848Z,97309.97
2022-08-25T07:07:15.277Z,97307.59
2022-08-25T07:09:41.715Z,97312.19
2022-08-25T07:12:08.330Z,97311.72
2022-08-25T07:14:36.424Z,97312.81
2022-08-25T07:17:03.286Z,97310.09
2022-08-25T07:19:37.112Z,97310.63
2022-08-25T07:22:03.561Z,97311.66
2022-08-25T07:24:30.021Z,97313.00
2022-08-25T07:26:56.514Z,97312.78
2022-08-25T07:29:32.174Z,97314.41
2022-08-25T07:32:02.732Z,97311.16
2022-08-25T07:34:52.150Z,97312.75
2022-08-25T07:37:32.210Z,97317.09
2022-08-25T07:40:02.158Z,97315.22
2022-08-25T07:42:31.364Z,97314.84
2022-08-25T07:44:57.977Z,97312.06
2022-08-25T07:47:24.468Z,97309.13
2022-08-25T07:49:50.945Z,97317.56
2022-08-25T07:52:17.372Z,97310.78
2022-08-25T07:54:44.237Z,97317.56
2022-08-25T07:57:13.651Z,97306.13
2022-08-25T07:59:43.415Z,97310.09
2022-08-25T08:02:18.215Z,97303.94
2022-08-25T08:04:46.318Z,97301.97
2022-08-25T08:07:12.814Z,97303.94
2022-08-25T08:09:39.224Z,97300.81
2022-08-25T08:12:05.868Z,97297.34
2022-08-25T08:14:39.568Z,97293.31
2022-08-25T08:17:11.626Z,97292.91
2022-08-25T08:19:40.757Z,97293.31
2022-08-25T08:22:11.555Z,97302.81
2022-08-25T08:24:44.615Z,97305.88
2022-08-25T08:27:21.342Z,97294.34
2022-08-25T08:29:48.574Z,97292.09
2022-08-25T08:32:15.110Z,97288.44
2022-08-25T08:34:41.761Z,97288.56
2022-08-25T08:37:10.413Z,97297.78
2022-08-25T08:39:37.148Z,97299.38
2022-08-25T08:42:23.208Z,97292.03
2022-08-25T08:44:50.357Z,97299.16
2022-08-25T08:47:19.819Z,97289.94
2022-08-25T08:49:55.313Z,97282.34
2022-08-25T08:52:24.514Z,97285.91
2022-08-25T08:54:53.285Z,97279.47
2022-08-25T08:57:20.190Z,97269.34
2022-08-25T08:59:50.818Z,97263.50
2022-08-25T09:02:51.528Z,97263.72
2022-08-25T09:05:20.022Z,97260.97
2022-08-25T09:07:48.396Z,97248.81
2022-08-25T09:10:18.275Z,97252.25
2022-08-25T09:12:48.165Z,97254.97
2022-08-25T09:15:54.793Z,97257.81
2022-08-25T09:18:29.873Z,97254.25
2022-08-25T09:21:03.303Z,97253.66
2022-08-25T09:23:48.323Z,97245.97
2022-08-25T09:26:24.104Z,97253.66
2022-08-25T09:28:51.918Z,97242.50
2022-08-25T09:31:20.113Z,97238.47
2022-08-25T09:33:46.773Z,97226.91
2022-08-25T09:36:13.654Z,97229.03
2022-08-25T09:38:41.214Z,97219.44
2022-08-25T09:41:07.982Z,97214.91
2022-08-25T09:43:35.621Z,97209.38
2022-08-25T09:46:05.190Z,97206.78
2022-08-25T09:48:56.713Z,97206.06
2022-08-25T09:51:26.727Z,97204.00
2022-08-25T09:53:53.189Z,97199.09
2022-08-25T09:56:21.581Z,97196.59
2022-08-25T09:58:48.443Z,97191.56
2022-08-25T10:01:16.329Z,97184.31
2022-08-25T10:03:59.682Z,97186.31
2022-08-25T10:06:27.827Z,97184.97
2022-08-25T10:08:58.251Z,97185.38
2022-08-25T10:11:38.831Z,97183.25
2022-08-25T10:14:07.814Z,97175.44
2022-08-25T10:16:36.162Z,97176.78
2022-08-25T10:19:32.322Z,97168.13
2022-08-25T10:22:12.076Z,97160.56
2022-08-25T10:24:39.457Z,97158.47
2022-08-25T10:27:15.078Z,97150.50
2022-08-25T10:29:57.625Z,97153.75
2022-08-25T10:32:27.645Z,97147.47
2022-08-25T10:34:55.118Z,97141.81
2022-08-25T10:37:43.682Z,97133.84
2022-08-25T10:40:25.494Z,97141.06
2022-08-25T10:42:58.621Z,97133.41
2022-08-25T10:45:44.627Z,97135.66
2022-08-25T10:48:13.400Z,97131.81
2022-08-25T10:51:00.909Z,97130.53
2022-08-25T10:53:29.503Z,97124.75
2022-08-25T10:56:07.856Z,97122.66
2022-08-25T10:58:37.499Z,97121.06
2022-08-25T11:01:08.089Z,97121.44
2022-08-25T11:03:42.888Z,97128.56
2022-08-25T11:06:12.571Z,97121.00
2022-08-25T11:08:55.297Z,97125.56
2022-08-25T11:11:31.312Z,97113.88
2022-08-25T11:14:05.728Z,97117.47
2022-08-25T11:16:37.547Z,97111.88
2022-08-25T11:19:26.884Z,97108.06
2022-08-25T11:21:59.595Z,97115.66
2022-08-25T11:24:29.093Z,97108.72
2022-08-25T11:26:56.399Z,97110.38
2022-08-25T11:29:24.183Z,97094.13
2022-08-25T11:31:53.530Z,97104.28
2022-08-25T11:34:20.845Z,97107.41
2022-08-25T11:36:52.090Z,97106.81
2022-08-25T11:39:18.617Z,97101.44
2022-08-25T11:42:03.984Z,97100.78
2022-08-25T11:44:53.344Z,97098.97
2022-08-25T11:47:50.083Z,97092.41
2022-08-25T11:50:29.905Z,97111.91
2022-08-25T11:53:16.973Z,97099.94
2022-08-25T11:55:43.623Z,97105.91
2022-08-25T11:58:33.210Z,97102.53
2022-08-25T12:01:00.444Z,97101.16
2022-08-25T12:03:32.924Z,97098.84
2022-08-25T12:06:25.733Z,97083.34
2022-08-25T12:08:52.795Z,97102.69
2022-08-25T12:11:42.292Z,97098.13
2022-08-25T12:14:28.995Z,97103.44
2022-08-25T12:16:55.539Z,97097.41
2022-08-25T12:19:28.653Z,97098.84
2022-08-25T12:21:56.726Z,97086.84
2022-08-25T12:24:47.996Z,97092.53
2022-08-25T12:27:29.054Z,97087.53
2022-08-25T12:30:21.096Z,97083.69
2022-08-25T12:33:03.095Z,97088.28
2022-08-25T12:35:33.560Z,97083.06
2022-08-25T12:38:10.288Z,97084.56
2022-08-25T12:40:43.876Z,97075.97
2022-08-25T12:43:20.671Z,97078.19
2022-08-25T12:45:53.064Z,97073.72
2022-08-25T12:48:29.050Z,97068.13
2022-08-25T12:50:57.779Z,97062.66
2022-08-25T12:53:24.580Z,97068.09
2022-08-25T12:55:58.162Z,97071.09
2022-08-25T12:58:31.211Z,97065.41
2022-08-25T13:01:35.249Z,97064.34
2022-08-25T13:04:09.387Z,97061.19
2022-08-25T13:06:54.813Z,97061.78
2022-08-25T13:09:31.409Z,97061.53
2022-08-25T13:11:57.884Z,97050.84
2022-08-25T13:14:34.754Z,97049.69
2022-08-25T13:17:05.570Z,97049.72
2022-08-25T13:19:34.760Z,97040.41
2022-08-25T13:22:03.443Z,97039.25
2022-08-25T13:24:30.755Z,97037.38
2022-08-25T13:27:08.906Z,97036.56
2022-08-25T13:29:37.691Z,97022.63
2022-08-25T13:32:12.671Z,97017.03
2022-08-25T13:34:42.893Z,97019.72
2022-08-25T13:37:30.382Z,97016.66
2022-08-25T13:40:27.408Z,97015.81
2022-08-25T13:42:56.232Z,97019.34
2022-08-25T13:45:25.358Z,97017.72
2022-08-25T13:47:55.834Z,97010.78
2022-08-25T13:50:29.907Z,97012.84
2022-08-25T13:52:56.694Z,97004.38
2022-08-25T13:55:27.736Z,97001.41
2022-08-25T13:57:55.168Z,97006.97
2022-08-25T14:00:31.819Z,97010.59
2022-08-25T14:02:59.343Z,97003.25
2022-08-25T14:05:36.459Z,96989.94
2022-08-25T14:08:16.254Z,96998.84
2022-08-25T14:10:49.855Z,96993.81
2022-08-25T14:13:31.881Z,96993.00
2022-08-25T14:16:18.649Z,96997.34
2022-08-25T14:18:52.863Z,96999.31
2022-08-25T14:21:22.871Z,97004.28
2022-08-25T14:23:49.290Z,96997.06
2022-08-25T14:26:16.369Z,96998.88
2022-08-25T14:28:42.912Z,96990.81
2022-08-25T14:31:11.106Z,96996.75
2022-08-25T14:33:39.362Z,96997.69
2022-08-25T14:36:07.017Z,96991.06
2022-08-25T14:38:33.730Z,96974.72
2022-08-25T14:41:00.303Z,96990.06
2022-08-25T14:43:31.774Z,96977.25
2022-08-25T14:45:58.986Z,96984.44
2022-08-25T14:48:27.142Z,96976.47
2022-08-25T14:50:54.111Z,96984.72
2022-08-25T14:53:20.526Z,96978.63
2022-08-25T14:55:46.970Z,96971.47
2022-08-25T14:58:13.729Z,96965.56
2022-08-25T15:00:43.833Z,96971.84
2022-08-25T15:03:14.674Z,96969.59
2022-08-25T15:05:41.213Z,96964.47
2022-08-25T15:08:29.927Z,96964.19
2022-08-25T15:10:59.042Z,96969.84
2022-08-25T15:13:27.444Z,96967.63
2022-08-25T15:15:54.902Z,96973.38
2022-08-25T15:18:25.756Z,96971.19
2022-08-25T15:20:52.208Z,96964.81
2022-08-25T15:23:18.843Z,96961.81
2022-08-25T15:25:45.970Z,96961.38
2022-08-25T15:28:12.787Z,96956.41
2022-08-25T15:30:45.689Z,96950.63
2022-08-25T15:33:12.506Z,96952.63
2022-08-25T15:35:39.069Z,96957.28
2022-08-25T15:38:05.618Z,96942.19
2022-08-25T15:40:34.398Z,96935.50
2022-08-25T15:43:01.537Z,96942.91
2022-08-25T15:45:27.999Z,96945.94
2022-08-25T15:47:54.401Z,96942.97
2022-08-25T15:50:25.403Z,96944.25
2022-08-25T15:52:52.680Z,96947.69
2022-08-25T15:55:19.859Z,96951.63
2022-08-25T15:57:47.823Z,96949.28
2022-08-25T16:00:17.036Z,96945.59
2022-08-25T16:02:45.421Z,96945.59
2022-08-25T16:05:13.465Z,96947.78
2022-08-25T16:07:40.039Z,96950.81
2022-08-25T16:10:06.620Z,96948.50
2022-08-25T16:12:33.094Z,96941.75
2022-08-25T16:14:59.896Z,96942.00
2022-08-25T16:17:26.735Z,96939.22
2022-08-25T16:19:53.200Z,96941.44
2022-08-25T16:22:19.803Z,96938.88
2022-08-25T16:24:46.317Z,96933.28
2022-08-25T16:27:13.297Z,96942.56
2022-08-25T16:29:40.678Z,96943.59
2022-08-25T16:32:07.885Z,96941.03
2022-08-25T16:34:34.513Z,96937.47
2022-08-25T16:37:01.028Z,96931.56
2022-08-25T16:39:27.468Z,96937.81
2022-08-25T16:41:54.295Z,96933.81
2022-08-25T16:44:22.629Z,96933.81
2022-08-25T16:46:49.583Z,96932.63
2022-08-25T16:49:17.510Z,96927.44
2022-08-25T16:51:44.026Z,96929.06
2022-08-25T16:54:29.544Z,96930.84
2022-08-25T16:56:57.420Z,96929.50
2022-08-25T16:59:23.943Z,96928.00
2022-08-25T17:01:50.464Z,96926.88
2022-08-25T17:04:17.322Z,96926.50
2022-08-25T17:06:51.689Z,96934.22
2022-08-25T17:09:22.855Z,96928.41
2022-08-25T17:11:52.623Z,96933.66
2022-08-25T17:14:21.198Z,96933.22
2022-08-25T17:16:48.600Z,96932.94
2022-08-25T17:19:17.341Z,96931.81
2022-08-25T17:21:46.402Z,96933.56
2022-08-25T17:24:13.335Z,96937.06
2022-08-25T17:26:41.135Z,96934.72
2022-08-25T17:29:07.880Z,96926.69
2022-08-25T17:31:39.635Z,96931.63
2022-08-25T17:34:07.610Z,96932.00
2022-08-25T17:36:34.055Z,96937.28
2022-08-25T17:39:00.562Z,96936.28
2022-08-25T17:41:27.892Z,96938.47
2022-08-25T17:43:54.375Z,96937.22
2022-08-25T17:46:20.911Z,96935.56
2022-08-25T17:48:47.374Z,96936.72
2022-08-25T17:51:16.030Z,96933.50
2022-08-25T17:53:43.678Z,96939.50
2022-08-25T17:56:14.823Z,96937.97
2022-08-25T17:58:41.405Z,96951.84
2022-08-25T18:01:13.911Z,96947.91
2022-08-25T18:03:40.397Z,96950.88
2022-08-25T18:06:08.391Z,96943.75
2022-08-25T18:08:35.482Z,96944.72
2022-08-25T18:11:02.583Z,96949.75
2022-08-25T18:13:29.253Z,96951.53
2022-08-25T18:15:55.697Z,96952.75
2022-08-25T18:18:24.298Z,96946.34
2022-08-25T18:20:50.963Z,96953.81
2022-08-25T18:23:19.512Z,96954.44
2022-08-25T18:25:46.125Z,96950.22
2022-08-25T18:28:14.150Z,96957.91
2022-08-25T18:30:40.805Z,96954.44
2022-08-25T18:33:07.911Z,96955.59
2022-08-25T18:35:34.354Z,96961.59
2022-08-25T18:38:19.940Z,96964.84
2022-08-25T18:40:47.748Z,96961.16
2022-08-25T18:43:14.447Z,96965.25
2022-08-25T18:45:42.477Z,96955.88
2022-08-25T18:48:09.246Z,96961.81
2022-08-25T18:50:36.412Z,96968.59
2022-08-25T18:53:03.207Z,96968.59
2022-08-25T18:55:32.796Z,96978.88
2022-08-25T18:57:59.292Z,96973.22
2022-08-25T19:00:26.885Z,96972.19
2022-08-25T19:02:54.723Z,96975.69
2022-08-25T19:05:23.749Z,96983.50
2022-08-25T19:07:52.039Z,96975.44
2022-08-25T19:10:19.080Z,96981.34
2022-08-25T19:12:45.709Z,96973.81
2022-08-25T19:15:12.779Z,96992.41
2022-08-25T19:17:39.296Z,96980.28
2022-08-25T19:20:11.232Z,96977.59
2022-08-25T19:22:41.989Z,96979.47
2022-08-25T19:25:09.494Z,96982.44
2022-08-25T19:27:36.015Z,96978.13
2022-08-25T19:30:03.604Z,96980.28
2022-08-25T19:32:30.282Z,96983.50
2022-08-25T19:34:56.863Z,96982.94
2022-08-25T19:37:25.050Z,96981.88
2022-08-25T19:39:53.986Z,96985.38
2022-08-25T19:42:31.744Z,96979.16
2022-08-25T19:45:03.065Z,96976.38
2022-08-25T19:47:29.735Z,96987.13
2022-08-25T19:49:58.564Z,96985.53
2022-08-25T19:52:28.727Z,96989.56
2022-08-25T19:54:55.419Z,96989.00
2022-08-25T19:57:28.236Z,96990.31
2022-08-25T20:00:10.242Z,96988.97
2022-08-25T20:02:36.905Z,96987.06
2022-08-25T20:05:04.105Z,96989.47
2022-08-25T20:07:32.503Z,96990.56
2022-08-25T20:09:59.451Z,96995.59
2022-08-25T20:12:26.011Z,96995.06
2022-08-25T20:14:53.455Z,97000.94
2022-08-25T20:17:24.742Z,97001.75
2022-08-25T20:19:57.166Z,97001.94
2022-08-25T20:22:26.114Z,97007.22
2022-08-25T20:24:57.426Z,97007.44
2022-08-25T20:27:26.603Z,97010.91
2022-08-25T20:29:53.343Z,97006.06
2022-08-25T20:32:19.869Z,97011.63
2022-08-25T20:34:46.801Z,97012.97
2022-08-25T20:37:13.286Z,97010.81
2022-08-25T20:39:40.671Z,97011.34
2022-08-25T20:42:07.173Z,97012.09
2022-08-25T20:44:36.692Z,97009.88
2022-08-25T20:47:08.786Z,97010.09
2022-08-25T20:49:37.863Z,97014.91
2022-08-25T20:52:04.611Z,97011.69
2022-08-25T20:54:31.133Z,97018.59
2022-08-25T20:56:57.657Z,97020.41
2022-08-25T20:59:24.790Z,97014.50
2022-08-25T21:01:51.630Z,97021.66
2022-08-25T21:04:20.745Z,97013.53
2022-08-25T21:06:47.322Z,97012.88
2022-08-25T21:09:16.022Z,97013.91
2022-08-25T21:11:42.854Z,97012.75
2022-08-25T21:14:09.826Z,97010.28
2022-08-25T21:16:37.686Z,97005.91
2022-08-25T21:19:04.515Z,97010.72
2022-08-25T21:21:37.403Z,97013.56
2022-08-25T21:24:07.317Z,97014.88
2022-08-25T21:26:35.296Z,97009.19
2022-08-25T21:29:03.835Z,97017.47
2022-08-25T21:31:31.180Z,97007.94
2022-08-25T21:33:58.486Z,97008.38
2022-08-25T21:36:25.687Z,97005.34
2022-08-25T21:38:52.653Z,97005.59
2022-08-25T21:41:21.282Z,97004.41
2022-08-25T21:43:48.106Z,97001.34
2022-08-25T21:46:15.689Z,96997.22
2022-08-25T21:48:42.179Z,96995.59
2022-08-25T21:51:09.706Z,96995.53
2022-08-25T21:53:36.663Z,96995.38
2022-08-25T21:56:07.092Z,96997.66
2022-08-25T21:58:33.709Z,97004.53
2022-08-25T22:01:07.486Z,96999.63
2022-08-25T22:03:37.752Z,96997.19
2022-08-25T22:06:05.306Z,97001.09
2022-08-25T22:08:32.605Z,96994.03
2022-08-25T22:11:00.267Z,97004.69
2022-08-25T22:13:27.358Z,96993.66
2022-08-25T22:15:54.384Z,96992.84
2022-08-25T22:18:21.485Z,97003.06
2022-08-25T22:20:48.557Z,96995.66
2022-08-25T22:23:20.281Z,96997.22
2022-08-25T22:25:47.614Z,96999.56
2022-08-25T22:28:15.780Z,97002.16
2022-08-25T22:30:42.724Z,97007.25
2022-08-25T22:33:09.343Z,97006.50
2022-08-25T22:35:36.004Z,97005.69
2022-08-25T22:38:06.338Z,97014.03
2022-08-25T22:40:33.515Z,97007.13
2022-08-25T22:43:00.079Z,97007.72
2022-08-25T22:45:26.940Z,97007.81
2022-08-25T22:47:55.217Z,97010.00
2022-08-25T22:50:21.626Z,97017.19
2022-08-25T22:52:48.239Z,97020.13
2022-08-25T22:55:14.848Z,97010.41
2022-08-25T22:57:42.801Z,97017.94
2022-08-25T23:00:10.455Z,97018.41
2022-08-25T23:02:37.032Z,97022.97
2022-08-25T23:05:03.868Z,97024.34
2022-08-25T23:07:32.941Z,97015.75
2022-08-25T23:10:00.041Z,97010.53
2022-08-25T23:12:26.488Z,97012.25
2022-08-25T23:14:52.985Z,97009.44
2022-08-25T23:17:19.567Z,97009.28
2022-08-25T23:19:46.345Z,97005.25
2022-08-25T23:22:16.311Z,97003.13
2022-08-25T23:24:46.903Z,97000.69
2022-08-25T23:27:14.828Z,96999.53
2022-08-25T23:29:44.134Z,96998.31
2022-08-25T23:32:13.964Z,97003.81
2022-08-25T23:34:42.889Z,96998.50
2022-08-25T23:37:13.571Z,97001.75
2022-08-25T23:39:45.722Z,97001.75
2022-08-25T23:42:12.318Z,96997.44
2022-08-25T23:44:38.743Z,96997.53
2022-08-25T23:47:07.031Z,97006.59
2022-08-25T23:49:33.445Z,96999.16
2022-08-25T23:52:00.023Z,97003.00
2022-08-25T23:54:30.869Z,97003.31
2022-08-25T23:56:57.815Z,96997.19
2022-08-25T23:59:25.544Z,96992.88
